Orange-Caritat (BA 115) Air Base

Airport
ICAO code: 
LFMO
Summary
ICAO Region: 
EUR
Territory: 
Location: 
, Provence-Alpes-Cote d'Azur
Serving: 
Orange
Elevation: 
197 ft
Coordinates: 
Aerial View: 
44° 8' 25.732" N, 4° 52' 0.181" E
Metar
Observation
LFMO 020300Z AUTO 00000KT 1500 0900 R14/1100N BCFG OVC003 02/02 Q1004 BECMG 0400 FG VV///
Station
Orange
Date/Time
2021-12-02 03:00:00
Wind direction
Wind speed
00 kts
Lowest cloud amount
overcast
Temperature
14°C
Dew point
0°C
Humidity
38%
QNH
1004 hPa
Weather condition
n/a

Runways

Designator Length Width Surface Rops
14/32 0 0 UNK No/No
15/33 2411 60 CON No/No
Airport map: 
Aerial View: 

SKYbrary Partners:

Safety knowledge contributed by: